createdAt,value
2023-02-16T00:03:06.102Z,3.8
2023-02-16T00:13:06.046Z,3.7
2023-02-16T00:23:05.989Z,3.6
2023-02-16T00:33:06.017Z,3.3
2023-02-16T00:43:05.968Z,3.2
2023-02-16T00:53:05.942Z,3.1
2023-02-16T01:03:05.925Z,3
2023-02-16T01:13:05.988Z,3.1
2023-02-16T01:23:05.945Z,2.9
2023-02-16T01:33:05.943Z,2.7
2023-02-16T01:43:05.913Z,2.5
2023-02-16T01:53:05.905Z,2.4
2023-02-16T02:03:05.967Z,2.3
2023-02-16T02:13:05.942Z,2.1
2023-02-16T02:23:05.861Z,2.1
2023-02-16T02:33:05.877Z,2
2023-02-16T02:43:05.891Z,1.8
2023-02-16T02:53:05.814Z,1.5
2023-02-16T03:03:05.881Z,1.3
2023-02-16T03:13:05.850Z,1.4
2023-02-16T03:23:05.806Z,1.4
2023-02-16T03:33:05.863Z,1.4
2023-02-16T03:43:05.824Z,1.2
2023-02-16T03:53:05.773Z,1.1
2023-02-16T04:03:05.805Z,1.1
2023-02-16T04:13:05.821Z,1.1
2023-02-16T04:23:05.769Z,0.7
2023-02-16T04:33:05.783Z,0.4
2023-02-16T04:43:05.719Z,0.2
2023-02-16T04:53:05.703Z,0.4
2023-02-16T05:03:05.747Z,0.5
2023-02-16T05:13:05.734Z,0.4
2023-02-16T05:23:05.694Z,0.3
2023-02-16T05:33:05.684Z,0.2
2023-02-16T05:43:05.735Z,0.1
2023-02-16T05:53:05.673Z,0.2
2023-02-16T06:03:05.700Z,0.2
2023-02-16T06:13:05.698Z,0.1
2023-02-16T06:23:05.649Z,-0.1
2023-02-16T06:33:05.666Z,-0.1
2023-02-16T06:43:05.701Z,0.1
2023-02-16T06:53:05.626Z,0
2023-02-16T07:03:05.717Z,-0.3
2023-02-16T07:13:05.644Z,-0.3
2023-02-16T07:23:05.618Z,-0.1
2023-02-16T07:33:05.636Z,-0.1
2023-02-16T07:43:05.621Z,-0.2
2023-02-16T07:53:05.576Z,0.1
2023-02-16T08:03:05.740Z,0.2
2023-02-16T08:13:05.610Z,0.5
2023-02-16T08:23:05.543Z,1.1
2023-02-16T08:33:05.579Z,1.5
2023-02-16T08:43:05.569Z,2
2023-02-16T08:53:05.527Z,2.4
2023-02-16T09:03:05.537Z,2.8
2023-02-16T09:13:05.575Z,3.2
2023-02-16T09:23:05.488Z,3.6
2023-02-16T09:33:05.471Z,4
2023-02-16T09:43:05.511Z,4.5
2023-02-16T09:53:05.474Z,4.9
2023-02-16T10:03:05.520Z,5.4
2023-02-16T10:13:05.446Z,7.5
2023-02-16T10:23:05.403Z,10.1
2023-02-16T10:33:05.436Z,12.2
2023-02-16T10:43:05.396Z,13.9
2023-02-16T10:53:05.359Z,15.3
2023-02-16T11:03:05.398Z,16.8
2023-02-16T11:13:05.359Z,17
2023-02-16T11:23:05.305Z,17.8
2023-02-16T11:33:05.325Z,18.5
2023-02-16T11:43:05.255Z,18.9
2023-02-16T11:53:05.260Z,19.8
2023-02-16T12:03:05.253Z,20
2023-02-16T12:13:05.241Z,20.3
2023-02-16T12:23:05.162Z,20.3
2023-02-16T12:33:05.180Z,20.4
2023-02-16T12:43:05.201Z,20.3
2023-02-16T12:53:05.103Z,19.9
2023-02-16T13:03:05.155Z,19.9
2023-02-16T13:13:05.100Z,20.1
2023-02-16T13:23:05.054Z,20.9
2023-02-16T13:33:05.042Z,21.5
2023-02-16T13:43:05.028Z,22.3
2023-02-16T13:53:05.037Z,22.1
2023-02-16T14:03:04.957Z,22.2
2023-02-16T14:13:04.982Z,22.4
2023-02-16T14:23:04.928Z,21.9
2023-02-16T14:33:04.941Z,21.7
2023-02-16T14:43:04.966Z,22.1
2023-02-16T14:53:04.846Z,21.7
2023-02-16T15:03:04.868Z,21.4
2023-02-16T15:13:04.839Z,21.6
2023-02-16T15:23:04.793Z,21.8
2023-02-16T15:33:04.836Z,21.1
2023-02-16T15:43:04.780Z,21.2
2023-02-16T15:53:04.737Z,20.5
2023-02-16T16:03:04.711Z,19.9
2023-02-16T16:13:04.824Z,18.9
2023-02-16T16:23:04.925Z,17.5
2023-02-16T16:33:04.782Z,16.3
2023-02-16T16:43:04.695Z,15.3
2023-02-16T16:53:04.611Z,14.6
2023-02-16T17:03:04.624Z,14
2023-02-16T17:13:04.654Z,13.4
2023-02-16T17:23:04.640Z,12.8
2023-02-16T17:33:04.602Z,12.2
2023-02-16T17:43:04.566Z,11.7
2023-02-16T17:53:04.510Z,11.1
2023-02-16T18:03:04.478Z,10.5
2023-02-16T18:13:04.506Z,10.1
2023-02-16T18:23:04.440Z,9.7
2023-02-16T18:33:04.465Z,9.4
2023-02-16T18:43:04.446Z,8.8
2023-02-16T18:53:04.422Z,8.4
2023-02-16T19:03:04.561Z,8
2023-02-16T19:13:04.420Z,7.7
2023-02-16T19:23:04.377Z,7.3
2023-02-16T19:33:04.399Z,7.1
2023-02-16T19:43:04.401Z,7
2023-02-16T19:53:04.326Z,6.8
2023-02-16T20:03:04.433Z,6.5
2023-02-16T20:13:04.271Z,6.3
2023-02-16T20:23:04.261Z,6.1
2023-02-16T20:33:04.311Z,5.9
2023-02-16T20:43:04.257Z,5.4
2023-02-16T20:53:04.261Z,5.1
2023-02-16T21:03:04.242Z,5
2023-02-16T21:13:04.233Z,4.7
2023-02-16T21:23:04.203Z,4.6
2023-02-16T21:33:04.223Z,4.6
2023-02-16T21:43:04.162Z,4.4
2023-02-16T21:53:04.161Z,4.4
2023-02-16T22:03:04.136Z,4.1
2023-02-16T22:13:04.175Z,3.9
2023-02-16T22:23:04.107Z,3.7
2023-02-16T22:33:04.163Z,3.4
2023-02-16T22:43:04.092Z,3.1
2023-02-16T22:53:04.097Z,2.9
2023-02-16T23:03:04.133Z,2.8
2023-02-16T23:13:04.069Z,2.8
2023-02-16T23:23:04.107Z,2.7
2023-02-16T23:33:04.085Z,2.8
2023-02-16T23:43:04.085Z,2.8
2023-02-16T23:53:04.021Z,2.5
